Wilmington, OH

1:04 PM EST on December 03, 2016 (GMT -0500)
2.2 N Wilmington | | Change Station

Elev 1053 ft 39.47 °N, 83.84 °W | Updated 6 minutes ago

Overcast
Overcast
38.6 °F
Feels Like 33 °F
N
8.0
Wind Variable Wind from WSW
Gusts 10.0 mph

Today
High -- | Low -- °F
--% Chance of Precip.
Yesterday
High -- | Low -- °F
Precip. -- in
Pressure 30.37 in
Visibility 10.0 miles
Clouds Overcast 3000 ft
Windchill 33 °F
Dew Point 31 °F
Humidity 73%
Rainfall 0.00 in
Snow Depth Not available.
7:38 AM 5:11 PM
Waxing Crescent, 16% visible
METAR KILN 031754Z AUTO 26008KT 10SM OVC030 03/M02 A3030 RMK AO2 SLP284 T00331022 10033 20022 56018
Pressure 30.37 in
Visibility 10.0 miles
Clouds Overcast 3000 ft
Windchill 33 °F
Dew Point 31 °F
Humidity 73%
Rainfall 0.00 in
Snow Depth Not available.
7:38 AM 5:11 PM
Waxing Crescent, 16% visible
METAR KILN 031754Z AUTO 26008KT 10SM OVC030 03/M02 A3030 RMK AO2 SLP284 T00331022 10033 20022 56018

10-Day Weather Forecast

Almanac

Astronomy

Dec. 03, 2016 Rise Set
Actual Time
Civil Twilight
Nautical Twilight
Astronomical Twilight
Moon
Length of Visible Light
Length of Day
Tomorrow will be .
, % of the Moon is Illuminated

Today's Extremes

State Highs State Lows

Community

WunderPhotos

Upload Photos

1,955,455 photos uploaded!

WunderBlog® & News

Nearby

Air Quality

  Air Quality AQ Index Pollutant
Not available.

Snow Depth

Station Depth Elevation

Earthquake Activity

City Distance Mag. Time & Date
Minimum magnitude displayed is 2.5.

Coastal Water Temperatures

Place Temperature

Stations

Nearby Weather Stations

Station Location Temp. Windchill Dew Point Humidity Wind Precip. Elev Updated Type
                   

Watches & Warnings

There are currently no watches in effect.